createdAt,value
2019-05-22T00:00:31.078Z,19.12
2019-05-22T00:03:04.271Z,19.09
2019-05-22T00:05:35.913Z,19.10
2019-05-22T00:08:09.388Z,19.02
2019-05-22T00:10:44.481Z,19.09
2019-05-22T00:13:15.135Z,19.06
2019-05-22T00:15:48.548Z,19.05
2019-05-22T00:18:21.542Z,18.97
2019-05-22T00:20:53.899Z,18.99
2019-05-22T00:23:27.010Z,19.01
2019-05-22T00:25:58.777Z,18.93
2019-05-22T00:28:31.600Z,18.93
2019-05-22T00:31:03.611Z,18.94
2019-05-22T00:33:36.616Z,18.91
2019-05-22T00:36:10.707Z,18.96
2019-05-22T00:38:43.693Z,18.94
2019-05-22T00:41:18.015Z,18.97
2019-05-22T00:43:51.701Z,18.95
2019-05-22T00:46:24.561Z,18.88
2019-05-22T00:48:56.142Z,18.84
2019-05-22T00:51:29.271Z,18.84
2019-05-22T00:54:03.819Z,18.90
2019-05-22T00:56:37.044Z,18.97
2019-05-22T00:59:11.289Z,19.03
2019-05-22T01:01:50.132Z,19.01
2019-05-22T01:04:32.624Z,18.98
2019-05-22T01:07:07.399Z,18.97
2019-05-22T01:09:43.740Z,18.98
2019-05-22T01:12:21.761Z,19.08
2019-05-22T01:14:53.495Z,18.99
2019-05-22T01:17:27.692Z,18.93
2019-05-22T01:20:01.333Z,18.96
2019-05-22T01:22:34.394Z,18.96
2019-05-22T01:25:07.228Z,19.04
2019-05-22T01:27:39.017Z,18.94
2019-05-22T01:30:13.762Z,18.91
2019-05-22T01:32:53.509Z,18.82
2019-05-22T01:35:45.292Z,18.66
2019-05-22T01:38:17.288Z,18.60
2019-05-22T01:40:53.173Z,18.64
2019-05-22T01:43:26.149Z,18.68
2019-05-22T01:45:59.293Z,18.66
2019-05-22T01:48:33.556Z,18.60
2019-05-22T01:51:07.165Z,18.57
2019-05-22T01:53:42.128Z,18.51
2019-05-22T01:56:16.111Z,18.53
2019-05-22T01:58:48.067Z,18.52
2019-05-22T02:01:22.006Z,18.53
2019-05-22T02:03:55.376Z,18.52
2019-05-22T02:06:28.223Z,18.58
2019-05-22T02:09:21.800Z,18.46
2019-05-22T02:11:57.152Z,18.42
2019-05-22T02:14:30.460Z,18.53
2019-05-22T02:17:03.154Z,18.49
2019-05-22T02:19:35.389Z,18.44
2019-05-22T02:22:06.933Z,18.44
2019-05-22T02:24:39.417Z,18.37
2019-05-22T02:27:12.790Z,18.27
2019-05-22T02:29:44.576Z,18.52
2019-05-22T02:32:17.672Z,18.61
2019-05-22T02:34:50.177Z,18.64
2019-05-22T02:37:22.256Z,18.54
2019-05-22T02:39:54.413Z,18.59
2019-05-22T02:42:29.670Z,18.59
2019-05-22T02:45:02.167Z,18.58
2019-05-22T02:47:36.780Z,18.56
2019-05-22T02:50:08.676Z,18.54
2019-05-22T02:52:40.928Z,18.60
2019-05-22T02:55:12.314Z,18.62
2019-05-22T02:57:45.133Z,18.62
2019-05-22T03:00:19.794Z,18.64
2019-05-22T03:02:53.797Z,18.71
2019-05-22T03:05:26.802Z,18.71
2019-05-22T03:07:59.478Z,18.73
2019-05-22T03:10:30.903Z,18.79
2019-05-22T03:13:04.331Z,18.84
2019-05-22T03:15:35.730Z,18.87
2019-05-22T03:18:08.814Z,18.77
2019-05-22T03:20:41.946Z,18.69
2019-05-22T03:23:32.915Z,18.61
2019-05-22T03:26:05.683Z,18.66
2019-05-22T03:28:38.851Z,18.71
2019-05-22T03:31:10.501Z,18.67
2019-05-22T03:33:44.763Z,18.71
2019-05-22T03:36:18.345Z,18.85
2019-05-22T03:38:50.800Z,18.83
2019-05-22T03:41:23.085Z,19.06
2019-05-22T03:43:56.242Z,19.11
2019-05-22T03:46:37.261Z,19.03
2019-05-22T03:49:27.956Z,19.15
2019-05-22T03:51:47.169Z,19.25
2019-05-22T03:54:19.510Z,19.38
2019-05-22T03:56:52.016Z,19.39
2019-05-22T03:59:23.840Z,19.38
2019-05-22T04:01:56.743Z,19.56
2019-05-22T04:04:36.660Z,19.71
2019-05-22T04:07:11.681Z,19.72
2019-05-22T04:09:45.127Z,19.74
2019-05-22T04:12:17.135Z,19.53
2019-05-22T04:14:48.677Z,19.67
2019-05-22T04:17:20.238Z,19.43
2019-05-22T04:19:52.153Z,19.50
2019-05-22T04:22:23.969Z,19.32
2019-05-22T04:24:55.980Z,19.30
2019-05-22T04:27:29.043Z,19.30
2019-05-22T04:30:01.916Z,19.19
2019-05-22T04:32:35.046Z,18.51
2019-05-22T04:35:10.299Z,17.88
2019-05-22T04:37:43.102Z,17.45
2019-05-22T04:40:27.561Z,17.27
2019-05-22T04:43:00.049Z,17.15
2019-05-22T04:45:32.022Z,17.07
2019-05-22T04:48:03.831Z,16.83
2019-05-22T04:50:35.277Z,16.70
2019-05-22T04:53:07.001Z,16.69
2019-05-22T04:55:38.385Z,16.82
2019-05-22T04:58:15.454Z,16.92
2019-05-22T05:00:47.752Z,17.02
2019-05-22T05:03:20.923Z,16.99
2019-05-22T05:05:52.967Z,16.97
2019-05-22T05:08:24.430Z,17.00
2019-05-22T05:10:58.582Z,16.96
2019-05-22T05:13:30.143Z,16.88
2019-05-22T05:16:01.921Z,16.85
2019-05-22T05:18:33.513Z,16.78
2019-05-22T05:21:05.542Z,16.65
2019-05-22T05:23:36.975Z,16.60
2019-05-22T05:26:08.684Z,16.56
2019-05-22T05:28:41.599Z,16.48
2019-05-22T05:31:14.504Z,16.63
2019-05-22T05:33:51.510Z,16.70
2019-05-22T05:36:23.464Z,16.69
2019-05-22T05:38:55.758Z,16.67
2019-05-22T05:41:28.609Z,16.67
2019-05-22T05:44:00.636Z,16.59
2019-05-22T05:46:32.002Z,16.58
2019-05-22T05:49:04.298Z,16.47
2019-05-22T05:51:38.109Z,16.34
2019-05-22T05:54:12.992Z,16.41
2019-05-22T05:56:46.130Z,16.49
2019-05-22T05:59:18.822Z,16.50
2019-05-22T06:01:52.168Z,16.52
2019-05-22T06:04:34.647Z,16.49
2019-05-22T06:07:19.690Z,16.35
2019-05-22T06:09:57.308Z,16.33
2019-05-22T06:12:28.790Z,16.41
2019-05-22T06:15:00.333Z,16.37
2019-05-22T06:17:44.052Z,16.30
2019-05-22T06:20:17.993Z,16.28
2019-05-22T06:23:27.516Z,16.35
2019-05-22T06:25:59.345Z,16.37
2019-05-22T06:28:33.613Z,16.39
2019-05-22T06:31:05.700Z,16.28
2019-05-22T06:33:38.956Z,16.25
2019-05-22T06:36:13.072Z,16.35
2019-05-22T06:38:57.506Z,16.44
2019-05-22T06:41:33.069Z,16.40
2019-05-22T06:44:27.165Z,16.38
2019-05-22T06:46:59.136Z,16.26
2019-05-22T06:49:36.329Z,16.09
2019-05-22T06:52:09.353Z,16.09
2019-05-22T06:54:40.867Z,16.10
2019-05-22T06:57:14.143Z,16.17
2019-05-22T06:59:46.912Z,16.16
2019-05-22T07:02:19.625Z,16.08
2019-05-22T07:04:52.735Z,16.15
2019-05-22T07:07:24.862Z,16.18
2019-05-22T07:09:56.855Z,16.23
2019-05-22T07:12:30.657Z,16.30
2019-05-22T07:15:12.308Z,16.32
2019-05-22T07:17:45.106Z,16.51
2019-05-22T07:20:16.515Z,16.52
2019-05-22T07:22:48.499Z,16.41
2019-05-22T07:25:21.357Z,16.41
2019-05-22T07:27:53.227Z,16.48
2019-05-22T07:30:24.778Z,16.53
2019-05-22T07:32:56.760Z,16.52
2019-05-22T07:35:45.646Z,16.61
2019-05-22T07:38:02.644Z,16.65
2019-05-22T07:40:35.832Z,16.64
2019-05-22T07:43:07.809Z,16.74
2019-05-22T07:45:40.886Z,16.78
2019-05-22T07:48:13.876Z,16.79
2019-05-22T07:50:48.938Z,16.85
2019-05-22T07:53:20.334Z,16.93
2019-05-22T07:55:53.961Z,16.96
2019-05-22T07:58:27.078Z,16.92
2019-05-22T08:00:59.520Z,17.00
2019-05-22T08:03:33.176Z,17.00
2019-05-22T08:06:05.730Z,17.18
2019-05-22T08:08:38.389Z,17.23
2019-05-22T08:11:10.655Z,17.26
2019-05-22T08:13:44.408Z,17.17
2019-05-22T08:16:17.018Z,17.34
2019-05-22T08:18:48.941Z,17.30
2019-05-22T08:21:23.327Z,17.34
2019-05-22T08:23:54.930Z,17.34
2019-05-22T08:26:29.240Z,17.39
2019-05-22T08:29:02.446Z,17.23
2019-05-22T08:31:34.814Z,17.11
2019-05-22T08:34:08.040Z,17.25
2019-05-22T08:36:40.012Z,17.45
2019-05-22T08:39:11.620Z,17.84
2019-05-22T08:41:44.437Z,18.08
2019-05-22T08:44:18.001Z,18.32
2019-05-22T08:46:49.996Z,18.48
2019-05-22T08:49:21.836Z,18.45
2019-05-22T08:51:54.254Z,18.58
2019-05-22T08:54:26.471Z,18.93
2019-05-22T08:56:58.845Z,19.04
2019-05-22T08:59:30.597Z,18.94
2019-05-22T09:02:02.388Z,18.83
2019-05-22T09:04:34.785Z,18.89
2019-05-22T09:07:06.902Z,18.67
2019-05-22T09:09:38.436Z,18.28
2019-05-22T09:12:11.343Z,18.00
2019-05-22T09:14:43.029Z,17.79
2019-05-22T09:17:15.320Z,17.78
2019-05-22T09:19:47.660Z,17.79
2019-05-22T09:22:20.805Z,17.88
2019-05-22T09:24:52.930Z,18.02
2019-05-22T09:27:24.658Z,18.05
2019-05-22T09:29:56.222Z,18.11
2019-05-22T09:32:27.592Z,17.90
2019-05-22T09:34:58.999Z,17.69
2019-05-22T09:37:30.445Z,17.59
2019-05-22T09:40:01.992Z,17.55
2019-05-22T09:42:34.400Z,17.52
2019-05-22T09:45:09.258Z,17.50
2019-05-22T09:47:41.037Z,17.57
2019-05-22T09:50:13.287Z,17.58
2019-05-22T09:52:57.178Z,17.59
2019-05-22T09:55:20.505Z,17.65
2019-05-22T09:57:52.294Z,17.58
2019-05-22T10:00:24.218Z,17.57
2019-05-22T10:02:55.679Z,17.52
2019-05-22T10:05:27.195Z,17.60
2019-05-22T10:08:01.756Z,17.54
2019-05-22T10:10:33.684Z,17.57
2019-05-22T10:13:05.640Z,17.64
2019-05-22T10:15:39.970Z,17.55
2019-05-22T10:18:13.747Z,17.52
2019-05-22T10:20:45.425Z,17.28
2019-05-22T10:23:17.255Z,17.20
2019-05-22T10:25:48.763Z,17.17
2019-05-22T10:28:20.716Z,17.05
2019-05-22T10:30:52.491Z,17.01
2019-05-22T10:33:24.568Z,16.94
2019-05-22T10:35:56.013Z,16.99
2019-05-22T10:38:27.728Z,16.95
2019-05-22T10:40:59.798Z,16.83
2019-05-22T10:43:31.725Z,16.76
2019-05-22T10:46:03.986Z,16.82
2019-05-22T10:48:35.603Z,16.79
2019-05-22T10:51:07.110Z,16.78
2019-05-22T10:53:38.859Z,16.48
2019-05-22T10:56:10.892Z,16.44
2019-05-22T10:58:42.329Z,16.59
2019-05-22T11:01:14.513Z,16.61
2019-05-22T11:03:46.068Z,16.55
2019-05-22T11:06:17.987Z,16.58
2019-05-22T11:08:49.718Z,16.47
2019-05-22T11:11:21.863Z,16.55
2019-05-22T11:14:01.463Z,16.49
2019-05-22T11:16:28.385Z,16.50
2019-05-22T11:18:59.845Z,16.51
2019-05-22T11:21:32.354Z,16.51
2019-05-22T11:24:04.101Z,16.38
2019-05-22T11:26:35.486Z,16.29
2019-05-22T11:29:08.200Z,16.18
2019-05-22T11:31:39.885Z,16.05
2019-05-22T11:34:11.340Z,15.94
2019-05-22T11:36:43.013Z,15.87
2019-05-22T11:39:16.115Z,16.03
2019-05-22T11:41:47.762Z,15.95
2019-05-22T11:44:19.747Z,16.03
2019-05-22T11:46:51.585Z,16.06
2019-05-22T11:49:23.570Z,16.08
2019-05-22T11:51:55.181Z,16.16
2019-05-22T11:54:27.049Z,16.14
2019-05-22T11:56:58.384Z,16.22
2019-05-22T11:59:30.180Z,16.29
2019-05-22T12:02:01.503Z,16.27
2019-05-22T12:04:47.172Z,16.31
2019-05-22T12:07:07.526Z,16.30
2019-05-22T12:09:39.373Z,16.28
2019-05-22T12:12:12.144Z,16.32
2019-05-22T12:14:43.636Z,16.35
2019-05-22T12:17:15.489Z,16.40
2019-05-22T12:19:47.569Z,16.35
2019-05-22T12:22:20.027Z,16.36
2019-05-22T12:24:52.252Z,16.39
2019-05-22T12:27:23.648Z,16.35
2019-05-22T12:29:55.052Z,16.27
2019-05-22T12:32:29.219Z,16.19
2019-05-22T12:35:00.896Z,16.23
2019-05-22T12:37:33.872Z,16.41
2019-05-22T12:40:07.954Z,16.48
2019-05-22T12:42:39.582Z,16.58
2019-05-22T12:45:13.031Z,16.77
2019-05-22T12:47:44.569Z,16.84
2019-05-22T12:50:17.119Z,16.87
2019-05-22T12:52:50.696Z,17.06
2019-05-22T12:55:22.319Z,17.16
2019-05-22T12:57:53.808Z,17.21
2019-05-22T13:00:27.077Z,17.15
2019-05-22T13:03:00.883Z,17.03
2019-05-22T13:05:35.331Z,17.34
2019-05-22T13:08:07.090Z,17.53
2019-05-22T13:10:39.174Z,17.46
2019-05-22T13:13:10.624Z,17.55
2019-05-22T13:15:42.818Z,17.70
2019-05-22T13:18:17.237Z,17.62
2019-05-22T13:20:51.170Z,17.71
2019-05-22T13:23:26.839Z,17.56
2019-05-22T13:25:58.946Z,17.64
2019-05-22T13:28:30.604Z,17.66
2019-05-22T13:31:02.965Z,17.76
2019-05-22T13:33:37.568Z,17.72
2019-05-22T13:36:11.540Z,17.57
2019-05-22T13:38:43.345Z,17.51
2019-05-22T13:41:14.855Z,17.48
2019-05-22T13:43:46.715Z,17.59
2019-05-22T13:46:18.002Z,17.55
2019-05-22T13:48:49.731Z,17.61
2019-05-22T13:51:21.406Z,17.79
2019-05-22T13:53:53.686Z,17.84
2019-05-22T13:56:25.695Z,17.78
2019-05-22T13:58:57.381Z,17.79
2019-05-22T14:01:30.682Z,17.79
2019-05-22T14:04:02.027Z,17.93
2019-05-22T14:06:33.479Z,17.81
2019-05-22T14:09:08.280Z,17.78
2019-05-22T14:11:39.829Z,17.72
2019-05-22T14:14:11.195Z,17.60
2019-05-22T14:16:48.609Z,17.56
2019-05-22T14:19:15.947Z,17.72
2019-05-22T14:21:51.178Z,17.87
2019-05-22T14:24:20.478Z,17.98
2019-05-22T14:26:51.972Z,18.30
2019-05-22T14:29:23.810Z,18.39
2019-05-22T14:31:55.667Z,18.73
2019-05-22T14:34:27.041Z,18.70
2019-05-22T14:36:59.615Z,18.68
2019-05-22T14:39:32.833Z,18.79
2019-05-22T14:42:04.930Z,18.70
2019-05-22T14:44:36.749Z,18.66
2019-05-22T14:47:14.740Z,18.73
2019-05-22T14:49:42.437Z,18.68
2019-05-22T14:52:13.822Z,18.62
2019-05-22T14:54:45.708Z,18.56
2019-05-22T14:57:18.661Z,18.67
2019-05-22T14:59:50.062Z,18.69
2019-05-22T15:02:23.230Z,18.55
2019-05-22T15:04:54.651Z,18.49
2019-05-22T15:07:26.398Z,18.37
2019-05-22T15:09:57.867Z,18.41
2019-05-22T15:12:30.030Z,18.40
2019-05-22T15:15:02.013Z,18.37
2019-05-22T15:17:34.150Z,18.31
2019-05-22T15:20:11.472Z,18.22
2019-05-22T15:22:42.913Z,18.25
2019-05-22T15:25:14.981Z,18.19
2019-05-22T15:27:46.613Z,18.19
2019-05-22T15:30:19.730Z,18.20
2019-05-22T15:32:51.280Z,18.06
2019-05-22T15:35:23.607Z,18.14
2019-05-22T15:37:56.569Z,18.02
2019-05-22T15:40:29.610Z,18.00
2019-05-22T15:43:01.374Z,18.07
2019-05-22T15:45:34.392Z,18.19
2019-05-22T15:48:08.486Z,18.01
2019-05-22T15:50:42.327Z,17.86
2019-05-22T15:53:15.350Z,17.87
2019-05-22T15:55:48.519Z,17.94
2019-05-22T15:58:21.027Z,18.05
2019-05-22T16:00:56.396Z,17.83
2019-05-22T16:03:28.914Z,17.77
2019-05-22T16:06:01.529Z,17.74
2019-05-22T16:08:33.409Z,17.66
2019-05-22T16:11:09.069Z,17.70
2019-05-22T16:13:41.500Z,17.61
2019-05-22T16:16:15.065Z,17.62
2019-05-22T16:18:49.138Z,17.64
2019-05-22T16:21:21.000Z,17.63
2019-05-22T16:23:55.049Z,17.62
2019-05-22T16:26:27.664Z,17.61
2019-05-22T16:29:00.948Z,17.54
2019-05-22T16:31:32.819Z,17.58
2019-05-22T16:34:05.306Z,17.54
2019-05-22T16:36:37.008Z,17.46
2019-05-22T16:39:11.140Z,17.48
2019-05-22T16:41:43.173Z,17.44
2019-05-22T16:44:14.906Z,17.50
2019-05-22T16:46:46.951Z,17.40
2019-05-22T16:49:18.387Z,17.46
2019-05-22T16:51:51.151Z,17.38
2019-05-22T16:54:22.995Z,17.32
2019-05-22T16:56:55.335Z,17.29
2019-05-22T16:59:27.054Z,17.32
2019-05-22T17:02:00.869Z,17.29
2019-05-22T17:04:32.437Z,17.28
2019-05-22T17:07:05.942Z,17.20
2019-05-22T17:09:39.696Z,17.18
2019-05-22T17:12:11.675Z,17.08
2019-05-22T17:14:45.911Z,17.05
2019-05-22T17:17:19.445Z,17.07
2019-05-22T17:19:52.007Z,17.13
2019-05-22T17:22:24.274Z,17.06
2019-05-22T17:24:57.665Z,17.02
2019-05-22T17:27:30.198Z,17.02
2019-05-22T17:30:01.673Z,17.00
2019-05-22T17:32:34.631Z,16.99
2019-05-22T17:35:08.727Z,16.90
2019-05-22T17:37:41.181Z,16.79
2019-05-22T17:40:14.236Z,16.74
2019-05-22T17:42:48.357Z,16.71
2019-05-22T17:45:21.338Z,16.69
2019-05-22T17:47:56.223Z,16.68
2019-05-22T17:50:28.546Z,16.64
2019-05-22T17:53:00.861Z,16.59
2019-05-22T17:55:33.499Z,16.52
2019-05-22T17:58:06.767Z,16.58
2019-05-22T18:00:43.081Z,16.56
2019-05-22T18:03:15.714Z,16.59
2019-05-22T18:05:47.389Z,16.59
2019-05-22T18:08:20.559Z,16.60
2019-05-22T18:10:52.349Z,16.52
2019-05-22T18:13:24.016Z,16.42
2019-05-22T18:15:55.699Z,16.41
2019-05-22T18:18:27.295Z,16.37
2019-05-22T18:20:59.240Z,16.34
2019-05-22T18:23:30.976Z,16.30
2019-05-22T18:26:02.598Z,16.34
2019-05-22T18:28:34.345Z,16.33
2019-05-22T18:31:06.587Z,16.31
2019-05-22T18:33:38.328Z,16.23
2019-05-22T18:36:10.261Z,16.20
2019-05-22T18:38:42.057Z,16.17
2019-05-22T18:41:14.104Z,16.15
2019-05-22T18:43:45.902Z,16.14
2019-05-22T18:46:18.669Z,16.13
2019-05-22T18:48:50.586Z,16.08
2019-05-22T18:51:22.543Z,16.05
2019-05-22T18:53:55.934Z,16.00
2019-05-22T18:56:30.722Z,15.93
2019-05-22T18:59:04.548Z,15.90
2019-05-22T19:01:36.325Z,15.87
2019-05-22T19:04:08.578Z,15.82
2019-05-22T19:06:47.360Z,15.81
2019-05-22T19:09:19.574Z,15.75
2019-05-22T19:11:53.953Z,15.76
2019-05-22T19:14:32.699Z,15.74
2019-05-22T19:17:09.889Z,15.73
2019-05-22T19:19:45.608Z,15.72
2019-05-22T19:22:31.934Z,15.68
2019-05-22T19:25:07.977Z,15.62
2019-05-22T19:27:45.989Z,15.61
2019-05-22T19:30:28.858Z,15.55
2019-05-22T19:33:02.436Z,15.55
2019-05-22T19:35:38.915Z,15.48
2019-05-22T19:38:22.872Z,15.47
2019-05-22T19:40:54.086Z,15.48
2019-05-22T19:43:32.242Z,15.46
2019-05-22T19:46:07.714Z,15.41
2019-05-22T19:48:47.386Z,15.36
2019-05-22T19:51:53.170Z,15.31
2019-05-22T19:54:29.339Z,15.34
2019-05-22T19:57:02.317Z,15.44
2019-05-22T19:59:36.048Z,15.47
2019-05-22T20:02:12.560Z,15.49
2019-05-22T20:04:45.603Z,15.50
2019-05-22T20:07:18.351Z,15.48
2019-05-22T20:09:50.417Z,15.45
2019-05-22T20:12:24.930Z,15.48
2019-05-22T20:14:56.537Z,15.52
2019-05-22T20:17:28.213Z,15.53
2019-05-22T20:19:59.831Z,15.57
2019-05-22T20:22:31.498Z,15.60
2019-05-22T20:25:04.336Z,15.67
2019-05-22T20:27:38.390Z,15.69
2019-05-22T20:30:13.900Z,15.76
2019-05-22T20:32:45.565Z,15.74
2019-05-22T20:35:18.939Z,15.72
2019-05-22T20:37:50.487Z,15.76
2019-05-22T20:40:23.504Z,15.69
2019-05-22T20:42:56.051Z,15.64
2019-05-22T20:45:29.740Z,15.61
2019-05-22T20:48:08.104Z,15.63
2019-05-22T20:50:40.497Z,15.56
2019-05-22T20:53:14.586Z,15.51
2019-05-22T20:55:49.415Z,15.49
2019-05-22T20:58:21.182Z,15.41
2019-05-22T21:00:52.884Z,15.36
2019-05-22T21:03:26.041Z,15.32
2019-05-22T21:05:58.149Z,15.27
2019-05-22T21:08:30.910Z,15.22
2019-05-22T21:11:03.139Z,15.18
2019-05-22T21:13:34.757Z,15.22
2019-05-22T21:16:07.825Z,15.10
2019-05-22T21:18:41.794Z,15.13
2019-05-22T21:21:13.729Z,15.00
2019-05-22T21:23:45.948Z,15.07
2019-05-22T21:26:18.993Z,15.05
2019-05-22T21:28:51.308Z,14.94
2019-05-22T21:31:23.511Z,14.92
2019-05-22T21:33:56.157Z,14.84
2019-05-22T21:36:28.189Z,14.78
2019-05-22T21:39:00.280Z,14.79
2019-05-22T21:41:32.281Z,14.77
2019-05-22T21:44:03.835Z,14.75
2019-05-22T21:46:36.263Z,14.78
2019-05-22T21:49:10.214Z,14.82
2019-05-22T21:51:43.461Z,14.76
2019-05-22T21:54:14.948Z,14.76
2019-05-22T21:56:46.980Z,14.91
2019-05-22T21:59:18.403Z,14.85
2019-05-22T22:01:52.656Z,14.77
2019-05-22T22:04:27.055Z,14.69
2019-05-22T22:06:59.795Z,14.59
2019-05-22T22:09:32.808Z,14.58
2019-05-22T22:12:08.344Z,14.60
2019-05-22T22:14:41.788Z,14.53
2019-05-22T22:17:14.898Z,14.43
2019-05-22T22:19:49.180Z,14.45
2019-05-22T22:22:24.087Z,14.56
2019-05-22T22:24:55.712Z,14.53
2019-05-22T22:27:27.384Z,14.53
2019-05-22T22:29:59.082Z,14.46
2019-05-22T22:32:32.236Z,14.46
2019-05-22T22:35:04.910Z,14.51
2019-05-22T22:37:36.817Z,14.55
2019-05-22T22:40:08.847Z,14.45
2019-05-22T22:42:42.099Z,14.50
2019-05-22T22:45:20.900Z,14.61
2019-05-22T22:47:53.783Z,14.63
2019-05-22T22:50:26.264Z,14.68
2019-05-22T22:52:58.859Z,14.71
2019-05-22T22:55:31.672Z,14.74
2019-05-22T22:58:16.759Z,14.71
2019-05-22T23:00:40.304Z,14.71
2019-05-22T23:03:13.820Z,14.68
2019-05-22T23:05:47.607Z,14.61
2019-05-22T23:08:23.245Z,14.64
2019-05-22T23:10:55.513Z,14.73
2019-05-22T23:13:28.074Z,14.80
2019-05-22T23:16:00.547Z,14.90
2019-05-22T23:18:45.472Z,14.88
2019-05-22T23:21:20.374Z,14.80
2019-05-22T23:23:51.042Z,14.84
2019-05-22T23:26:23.089Z,14.81
2019-05-22T23:28:55.008Z,14.77
2019-05-22T23:31:26.623Z,14.74
2019-05-22T23:33:59.539Z,14.90
2019-05-22T23:36:32.354Z,14.95
2019-05-22T23:39:06.958Z,14.99
2019-05-22T23:41:40.235Z,15.04
2019-05-22T23:44:14.795Z,14.95
2019-05-22T23:46:46.449Z,14.93
2019-05-22T23:49:19.361Z,14.89
2019-05-22T23:51:50.957Z,14.85
2019-05-22T23:54:22.985Z,14.88
2019-05-22T23:56:55.834Z,14.90
2019-05-22T23:59:28.451Z,14.89
